sensor_id;sensor_type;location;lat;lon;timestamp;P1;durP1;ratioP1;P2;durP2;ratioP2
7128;SDS011;3606;52.930;8.644;2022-09-06T00:01:40;7.47;;;4.70;;
7128;SDS011;3606;52.930;8.644;2022-09-06T00:04:06;5.93;;;4.57;;
7128;SDS011;3606;52.930;8.644;2022-09-06T00:06:32;7.23;;;4.70;;
7128;SDS011;3606;52.930;8.644;2022-09-06T00:08:58;6.27;;;5.10;;
7128;SDS011;3606;52.930;8.644;2022-09-06T00:11:24;5.20;;;4.70;;
7128;SDS011;3606;52.930;8.644;2022-09-06T00:13:50;5.10;;;4.60;;
7128;SDS011;3606;52.930;8.644;2022-09-06T00:16:17;7.00;;;4.77;;
7128;SDS011;3606;52.930;8.644;2022-09-06T00:18:44;5.20;;;4.70;;
7128;SDS011;3606;52.930;8.644;2022-09-06T00:23:44;6.27;;;4.97;;
7128;SDS011;3606;52.930;8.644;2022-09-06T00:26:10;6.30;;;5.00;;
7128;SDS011;3606;52.930;8.644;2022-09-06T00:28:36;5.33;;;4.80;;
7128;SDS011;3606;52.930;8.644;2022-09-06T00:31:06;5.67;;;4.67;;
7128;SDS011;3606;52.930;8.644;2022-09-06T00:33:40;5.17;;;4.53;;
7128;SDS011;3606;52.930;8.644;2022-09-06T00:36:06;7.50;;;5.30;;
7128;SDS011;3606;52.930;8.644;2022-09-06T00:38:33;5.53;;;4.97;;
7128;SDS011;3606;52.930;8.644;2022-09-06T00:40:58;8.33;;;5.00;;
7128;SDS011;3606;52.930;8.644;2022-09-06T00:43:24;5.30;;;4.80;;
7128;SDS011;3606;52.930;8.644;2022-09-06T00:45:50;5.93;;;4.50;;
7128;SDS011;3606;52.930;8.644;2022-09-06T00:48:17;5.37;;;4.77;;
7128;SDS011;3606;52.930;8.644;2022-09-06T00:50:43;5.83;;;4.87;;
7128;SDS011;3606;52.930;8.644;2022-09-06T00:53:12;6.60;;;4.80;;
7128;SDS011;3606;52.930;8.644;2022-09-06T00:55:38;6.40;;;5.00;;
7128;SDS011;3606;52.930;8.644;2022-09-06T00:58:06;6.37;;;5.50;;
7128;SDS011;3606;52.930;8.644;2022-09-06T01:00:33;8.07;;;5.20;;
7128;SDS011;3606;52.930;8.644;2022-09-06T01:02:59;5.67;;;4.93;;
7128;SDS011;3606;52.930;8.644;2022-09-06T01:05:30;5.87;;;5.20;;
7128;SDS011;3606;52.930;8.644;2022-09-06T01:08:13;5.47;;;4.80;;
7128;SDS011;3606;52.930;8.644;2022-09-06T01:10:53;5.30;;;4.80;;
7128;SDS011;3606;52.930;8.644;2022-09-06T01:21:32;5.93;;;5.30;;
7128;SDS011;3606;52.930;8.644;2022-09-06T01:27:29;5.70;;;5.20;;
7128;SDS011;3606;52.930;8.644;2022-09-06T01:30:06;5.73;;;4.90;;
7128;SDS011;3606;52.930;8.644;2022-09-06T01:37:41;6.67;;;5.63;;
7128;SDS011;3606;52.930;8.644;2022-09-06T01:40:07;5.77;;;5.27;;
7128;SDS011;3606;52.930;8.644;2022-09-06T01:42:33;5.70;;;5.20;;
7128;SDS011;3606;52.930;8.644;2022-09-06T01:45:10;5.63;;;5.07;;
7128;SDS011;3606;52.930;8.644;2022-09-06T01:47:43;6.73;;;5.07;;
7128;SDS011;3606;52.930;8.644;2022-09-06T01:56:06;7.63;;;5.17;;
7128;SDS011;3606;52.930;8.644;2022-09-06T02:01:24;6.37;;;5.30;;
7128;SDS011;3606;52.930;8.644;2022-09-06T02:04:10;8.17;;;5.03;;
7128;SDS011;3606;52.930;8.644;2022-09-06T02:06:46;5.83;;;5.20;;
7128;SDS011;3606;52.930;8.644;2022-09-06T02:09:18;5.90;;;5.30;;
7128;SDS011;3606;52.930;8.644;2022-09-06T02:11:48;8.47;;;5.87;;
7128;SDS011;3606;52.930;8.644;2022-09-06T02:14:29;6.17;;;5.53;;
7128;SDS011;3606;52.930;8.644;2022-09-06T02:16:58;6.20;;;5.60;;
7128;SDS011;3606;52.930;8.644;2022-09-06T02:22:02;6.23;;;5.63;;
7128;SDS011;3606;52.930;8.644;2022-09-06T02:24:31;6.27;;;5.50;;
7128;SDS011;3606;52.930;8.644;2022-09-06T02:27:01;6.53;;;5.07;;
7128;SDS011;3606;52.930;8.644;2022-09-06T02:29:27;6.43;;;5.27;;
7128;SDS011;3606;52.930;8.644;2022-09-06T02:31:54;6.33;;;5.73;;
7128;SDS011;3606;52.930;8.644;2022-09-06T02:34:29;5.67;;;5.17;;
7128;SDS011;3606;52.930;8.644;2022-09-06T02:36:54;6.70;;;6.10;;
7128;SDS011;3606;52.930;8.644;2022-09-06T02:39:20;5.63;;;5.13;;
7128;SDS011;3606;52.930;8.644;2022-09-06T02:41:46;6.60;;;5.90;;
7128;SDS011;3606;52.930;8.644;2022-09-06T02:44:12;6.73;;;5.57;;
7128;SDS011;3606;52.930;8.644;2022-09-06T02:46:38;6.40;;;5.80;;
7128;SDS011;3606;52.930;8.644;2022-09-06T02:49:04;5.47;;;4.97;;
7128;SDS011;3606;52.930;8.644;2022-09-06T02:51:30;8.63;;;5.87;;
7128;SDS011;3606;52.930;8.644;2022-09-06T02:54:01;6.30;;;5.23;;
7128;SDS011;3606;52.930;8.644;2022-09-06T02:56:26;5.87;;;5.27;;
7128;SDS011;3606;52.930;8.644;2022-09-06T02:58:52;5.43;;;4.93;;
7128;SDS011;3606;52.930;8.644;2022-09-06T03:01:17;6.63;;;5.80;;
7128;SDS011;3606;52.930;8.644;2022-09-06T03:03:43;7.97;;;5.63;;
7128;SDS011;3606;52.930;8.644;2022-09-06T03:06:08;6.17;;;5.47;;
7128;SDS011;3606;52.930;8.644;2022-09-06T03:08:34;6.27;;;5.50;;
7128;SDS011;3606;52.930;8.644;2022-09-06T03:11:00;7.33;;;5.37;;
7128;SDS011;3606;52.930;8.644;2022-09-06T03:13:26;5.73;;;5.20;;
7128;SDS011;3606;52.930;8.644;2022-09-06T03:15:52;9.53;;;5.70;;
7128;SDS011;3606;52.930;8.644;2022-09-06T03:18:20;6.37;;;5.07;;
7128;SDS011;3606;52.930;8.644;2022-09-06T03:20:50;8.30;;;5.50;;
7128;SDS011;3606;52.930;8.644;2022-09-06T03:23:17;5.50;;;5.00;;
7128;SDS011;3606;52.930;8.644;2022-09-06T03:25:44;7.00;;;5.40;;
7128;SDS011;3606;52.930;8.644;2022-09-06T03:28:09;6.53;;;5.20;;
7128;SDS011;3606;52.930;8.644;2022-09-06T03:30:35;5.90;;;5.40;;
7128;SDS011;3606;52.930;8.644;2022-09-06T03:33:01;6.57;;;5.50;;
7128;SDS011;3606;52.930;8.644;2022-09-06T03:35:26;8.00;;;5.43;;
7128;SDS011;3606;52.930;8.644;2022-09-06T03:37:52;7.87;;;5.53;;
7128;SDS011;3606;52.930;8.644;2022-09-06T03:40:18;8.43;;;5.00;;
7128;SDS011;3606;52.930;8.644;2022-09-06T03:42:43;6.23;;;5.63;;
7128;SDS011;3606;52.930;8.644;2022-09-06T03:45:10;5.70;;;5.20;;
7128;SDS011;3606;52.930;8.644;2022-09-06T03:47:36;5.60;;;5.10;;
7128;SDS011;3606;52.930;8.644;2022-09-06T03:50:02;7.07;;;5.40;;
7128;SDS011;3606;52.930;8.644;2022-09-06T03:52:28;6.77;;;5.53;;
7128;SDS011;3606;52.930;8.644;2022-09-06T03:54:54;9.07;;;5.30;;
7128;SDS011;3606;52.930;8.644;2022-09-06T03:57:19;7.93;;;5.43;;
7128;SDS011;3606;52.930;8.644;2022-09-06T03:59:45;5.80;;;5.27;;
7128;SDS011;3606;52.930;8.644;2022-09-06T04:02:11;7.97;;;5.83;;
7128;SDS011;3606;52.930;8.644;2022-09-06T04:04:36;5.90;;;5.23;;
7128;SDS011;3606;52.930;8.644;2022-09-06T04:07:02;6.77;;;5.70;;
7128;SDS011;3606;52.930;8.644;2022-09-06T04:09:27;8.13;;;5.17;;
7128;SDS011;3606;52.930;8.644;2022-09-06T04:11:53;6.67;;;5.40;;
7128;SDS011;3606;52.930;8.644;2022-09-06T04:14:19;6.10;;;5.50;;
7128;SDS011;3606;52.930;8.644;2022-09-06T04:16:45;6.30;;;4.87;;
7128;SDS011;3606;52.930;8.644;2022-09-06T04:19:11;8.13;;;4.93;;
7128;SDS011;3606;52.930;8.644;2022-09-06T04:21:36;6.27;;;5.77;;
7128;SDS011;3606;52.930;8.644;2022-09-06T04:24:02;6.50;;;5.00;;
7128;SDS011;3606;52.930;8.644;2022-09-06T04:26:28;6.43;;;5.03;;
7128;SDS011;3606;52.930;8.644;2022-09-06T04:28:54;6.47;;;5.40;;
7128;SDS011;3606;52.930;8.644;2022-09-06T04:31:20;6.33;;;5.03;;
7128;SDS011;3606;52.930;8.644;2022-09-06T04:33:45;5.33;;;4.83;;
7128;SDS011;3606;52.930;8.644;2022-09-06T04:36:11;5.90;;;5.20;;
7128;SDS011;3606;52.930;8.644;2022-09-06T04:38:38;6.73;;;5.30;;
7128;SDS011;3606;52.930;8.644;2022-09-06T04:41:06;5.60;;;4.80;;
7128;SDS011;3606;52.930;8.644;2022-09-06T04:43:33;4.53;;;4.13;;
7128;SDS011;3606;52.930;8.644;2022-09-06T04:46:41;5.53;;;5.00;;
7128;SDS011;3606;52.930;8.644;2022-09-06T04:48:52;6.43;;;5.17;;
7128;SDS011;3606;52.930;8.644;2022-09-06T04:51:19;6.90;;;5.13;;
7128;SDS011;3606;52.930;8.644;2022-09-06T04:53:46;5.83;;;5.07;;
7128;SDS011;3606;52.930;8.644;2022-09-06T04:56:13;5.60;;;5.00;;
7128;SDS011;3606;52.930;8.644;2022-09-06T04:58:42;6.33;;;4.80;;
7128;SDS011;3606;52.930;8.644;2022-09-06T05:01:08;6.43;;;5.00;;
7128;SDS011;3606;52.930;8.644;2022-09-06T05:03:34;6.43;;;5.30;;
7128;SDS011;3606;52.930;8.644;2022-09-06T05:06:10;6.57;;;4.73;;
7128;SDS011;3606;52.930;8.644;2022-09-06T05:08:44;5.70;;;5.10;;
7128;SDS011;3606;52.930;8.644;2022-09-06T05:11:10;6.07;;;4.80;;
7128;SDS011;3606;52.930;8.644;2022-09-06T05:13:36;5.93;;;4.87;;
7128;SDS011;3606;52.930;8.644;2022-09-06T05:16:03;5.63;;;4.97;;
7128;SDS011;3606;52.930;8.644;2022-09-06T05:18:30;7.53;;;4.17;;
7128;SDS011;3606;52.930;8.644;2022-09-06T05:20:56;7.77;;;4.80;;
7128;SDS011;3606;52.930;8.644;2022-09-06T05:23:22;5.40;;;4.90;;
7128;SDS011;3606;52.930;8.644;2022-09-06T05:25:49;10.77;;;4.90;;
7128;SDS011;3606;52.930;8.644;2022-09-06T05:28:15;7.43;;;5.00;;
7128;SDS011;3606;52.930;8.644;2022-09-06T05:30:41;6.20;;;4.53;;
7128;SDS011;3606;52.930;8.644;2022-09-06T05:33:07;7.17;;;4.80;;
7128;SDS011;3606;52.930;8.644;2022-09-06T05:35:34;7.90;;;4.60;;
7128;SDS011;3606;52.930;8.644;2022-09-06T05:38:00;8.50;;;4.80;;
7128;SDS011;3606;52.930;8.644;2022-09-06T05:40:25;5.00;;;4.40;;
7128;SDS011;3606;52.930;8.644;2022-09-06T05:42:51;6.10;;;4.20;;
7128;SDS011;3606;52.930;8.644;2022-09-06T05:45:16;7.23;;;4.63;;
7128;SDS011;3606;52.930;8.644;2022-09-06T05:47:42;4.93;;;4.33;;
7128;SDS011;3606;52.930;8.644;2022-09-06T05:50:08;5.60;;;4.93;;
7128;SDS011;3606;52.930;8.644;2022-09-06T05:52:34;6.30;;;5.07;;
7128;SDS011;3606;52.930;8.644;2022-09-06T05:55:00;7.07;;;4.40;;
7128;SDS011;3606;52.930;8.644;2022-09-06T05:57:26;5.60;;;5.00;;
7128;SDS011;3606;52.930;8.644;2022-09-06T05:59:52;5.10;;;4.50;;
7128;SDS011;3606;52.930;8.644;2022-09-06T06:02:21;5.00;;;4.50;;
7128;SDS011;3606;52.930;8.644;2022-09-06T06:04:47;6.27;;;4.27;;
7128;SDS011;3606;52.930;8.644;2022-09-06T06:07:13;10.40;;;4.70;;
7128;SDS011;3606;52.930;8.644;2022-09-06T06:09:39;5.87;;;4.57;;
7128;SDS011;3606;52.930;8.644;2022-09-06T06:12:05;5.97;;;4.80;;
7128;SDS011;3606;52.930;8.644;2022-09-06T06:14:31;5.77;;;4.60;;
7128;SDS011;3606;52.930;8.644;2022-09-06T06:16:56;7.03;;;4.20;;
7128;SDS011;3606;52.930;8.644;2022-09-06T06:19:22;5.60;;;4.80;;
7128;SDS011;3606;52.930;8.644;2022-09-06T06:21:48;8.30;;;4.50;;
7128;SDS011;3606;52.930;8.644;2022-09-06T06:24:14;5.30;;;4.80;;
7128;SDS011;3606;52.930;8.644;2022-09-06T06:26:39;5.20;;;4.60;;
7128;SDS011;3606;52.930;8.644;2022-09-06T06:29:05;5.17;;;4.63;;
7128;SDS011;3606;52.930;8.644;2022-09-06T06:31:33;7.70;;;4.50;;
7128;SDS011;3606;52.930;8.644;2022-09-06T06:34:00;6.27;;;4.10;;
7128;SDS011;3606;52.930;8.644;2022-09-06T06:36:29;7.03;;;4.90;;
7128;SDS011;3606;52.930;8.644;2022-09-06T06:38:57;6.33;;;4.63;;
7128;SDS011;3606;52.930;8.644;2022-09-06T06:41:24;5.53;;;4.90;;
7128;SDS011;3606;52.930;8.644;2022-09-06T06:43:52;7.77;;;4.60;;
7128;SDS011;3606;52.930;8.644;2022-09-06T06:46:26;5.47;;;4.93;;
7128;SDS011;3606;52.930;8.644;2022-09-06T06:48:53;4.90;;;4.40;;
7128;SDS011;3606;52.930;8.644;2022-09-06T06:51:19;4.90;;;4.40;;
7128;SDS011;3606;52.930;8.644;2022-09-06T06:53:47;4.83;;;4.33;;
7128;SDS011;3606;52.930;8.644;2022-09-06T06:58:43;6.03;;;4.17;;
7128;SDS011;3606;52.930;8.644;2022-09-06T07:01:10;6.20;;;4.70;;
7128;SDS011;3606;52.930;8.644;2022-09-06T07:03:35;4.87;;;4.27;;
7128;SDS011;3606;52.930;8.644;2022-09-06T07:06:04;7.53;;;4.70;;
7128;SDS011;3606;52.930;8.644;2022-09-06T07:08:31;6.40;;;4.13;;
7128;SDS011;3606;52.930;8.644;2022-09-06T07:10:57;6.10;;;4.30;;
7128;SDS011;3606;52.930;8.644;2022-09-06T07:13:23;5.50;;;4.20;;
7128;SDS011;3606;52.930;8.644;2022-09-06T07:15:49;4.20;;;3.80;;
7128;SDS011;3606;52.930;8.644;2022-09-06T07:18:15;5.23;;;4.10;;
7128;SDS011;3606;52.930;8.644;2022-09-06T07:20:41;4.83;;;4.33;;
7128;SDS011;3606;52.930;8.644;2022-09-06T07:23:07;8.37;;;4.30;;
7128;SDS011;3606;52.930;8.644;2022-09-06T07:25:33;5.23;;;4.20;;
7128;SDS011;3606;52.930;8.644;2022-09-06T07:27:59;5.70;;;4.17;;
7128;SDS011;3606;52.930;8.644;2022-09-06T07:30:31;7.13;;;3.90;;
7128;SDS011;3606;52.930;8.644;2022-09-06T07:32:58;5.53;;;4.20;;
7128;SDS011;3606;52.930;8.644;2022-09-06T07:35:24;6.93;;;4.10;;
7128;SDS011;3606;52.930;8.644;2022-09-06T07:37:52;9.97;;;4.47;;
7128;SDS011;3606;52.930;8.644;2022-09-06T07:40:22;4.53;;;4.07;;
7128;SDS011;3606;52.930;8.644;2022-09-06T07:42:54;6.53;;;4.07;;
7128;SDS011;3606;52.930;8.644;2022-09-06T07:45:21;7.23;;;4.53;;
7128;SDS011;3606;52.930;8.644;2022-09-06T07:47:54;4.97;;;4.47;;
7128;SDS011;3606;52.930;8.644;2022-09-06T07:50:22;7.17;;;4.70;;
7128;SDS011;3606;52.930;8.644;2022-09-06T07:52:48;5.43;;;4.30;;
7128;SDS011;3606;52.930;8.644;2022-09-06T07:55:14;7.17;;;4.57;;
7128;SDS011;3606;52.930;8.644;2022-09-06T07:57:40;5.47;;;4.50;;
7128;SDS011;3606;52.930;8.644;2022-09-06T08:00:06;6.00;;;4.50;;
7128;SDS011;3606;52.930;8.644;2022-09-06T08:02:32;4.40;;;3.90;;
7128;SDS011;3606;52.930;8.644;2022-09-06T08:04:57;6.33;;;4.17;;
7128;SDS011;3606;52.930;8.644;2022-09-06T08:07:23;4.63;;;4.13;;
7128;SDS011;3606;52.930;8.644;2022-09-06T08:09:49;8.40;;;4.37;;
7128;SDS011;3606;52.930;8.644;2022-09-06T08:12:15;4.53;;;4.00;;
7128;SDS011;3606;52.930;8.644;2022-09-06T08:14:41;5.77;;;4.57;;
7128;SDS011;3606;52.930;8.644;2022-09-06T08:17:07;5.53;;;4.30;;
7128;SDS011;3606;52.930;8.644;2022-09-06T08:19:33;4.87;;;4.27;;
7128;SDS011;3606;52.930;8.644;2022-09-06T08:21:58;5.67;;;4.30;;
7128;SDS011;3606;52.930;8.644;2022-09-06T08:24:24;4.70;;;3.60;;
7128;SDS011;3606;52.930;8.644;2022-09-06T08:26:50;4.87;;;4.37;;
7128;SDS011;3606;52.930;8.644;2022-09-06T08:29:16;5.77;;;4.47;;
7128;SDS011;3606;52.930;8.644;2022-09-06T08:31:43;6.70;;;4.33;;
7128;SDS011;3606;52.930;8.644;2022-09-06T08:34:09;6.63;;;4.27;;
7128;SDS011;3606;52.930;8.644;2022-09-06T08:36:39;7.87;;;4.20;;
7128;SDS011;3606;52.930;8.644;2022-09-06T08:39:06;5.87;;;3.87;;
7128;SDS011;3606;52.930;8.644;2022-09-06T08:44:31;4.97;;;4.47;;
7128;SDS011;3606;52.930;8.644;2022-09-06T08:47:02;4.77;;;4.03;;
7128;SDS011;3606;52.930;8.644;2022-09-06T08:49:33;6.53;;;4.50;;
7128;SDS011;3606;52.930;8.644;2022-09-06T08:52:06;4.70;;;4.10;;
7128;SDS011;3606;52.930;8.644;2022-09-06T08:59:45;4.23;;;3.83;;
7128;SDS011;3606;52.930;8.644;2022-09-06T09:02:19;4.60;;;4.13;;
7128;SDS011;3606;52.930;8.644;2022-09-06T09:04:56;7.87;;;4.17;;
7128;SDS011;3606;52.930;8.644;2022-09-06T09:09:52;5.67;;;4.07;;
7128;SDS011;3606;52.930;8.644;2022-09-06T09:12:21;5.87;;;4.13;;
7128;SDS011;3606;52.930;8.644;2022-09-06T09:14:48;7.90;;;4.00;;
7128;SDS011;3606;52.930;8.644;2022-09-06T09:17:21;6.33;;;4.03;;
7128;SDS011;3606;52.930;8.644;2022-09-06T09:19:51;5.33;;;3.77;;
7128;SDS011;3606;52.930;8.644;2022-09-06T09:22:17;9.73;;;3.97;;
7128;SDS011;3606;52.930;8.644;2022-09-06T09:24:44;4.63;;;4.13;;
7128;SDS011;3606;52.930;8.644;2022-09-06T09:27:12;8.00;;;4.40;;
7128;SDS011;3606;52.930;8.644;2022-09-06T09:32:28;5.27;;;4.10;;
7128;SDS011;3606;52.930;8.644;2022-09-06T09:35:26;5.63;;;4.10;;
7128;SDS011;3606;52.930;8.644;2022-09-06T09:38:11;8.87;;;4.90;;
7128;SDS011;3606;52.930;8.644;2022-09-06T09:41:01;9.97;;;5.00;;
7128;SDS011;3606;52.930;8.644;2022-09-06T09:43:30;9.17;;;4.37;;
7128;SDS011;3606;52.930;8.644;2022-09-06T09:46:15;5.60;;;4.63;;
7128;SDS011;3606;52.930;8.644;2022-09-06T09:51:46;8.17;;;4.70;;
7128;SDS011;3606;52.930;8.644;2022-09-06T09:54:30;5.27;;;4.30;;
7128;SDS011;3606;52.930;8.644;2022-09-06T09:56:57;6.03;;;4.27;;
7128;SDS011;3606;52.930;8.644;2022-09-06T09:59:32;5.97;;;4.57;;
7128;SDS011;3606;52.930;8.644;2022-09-06T10:04:50;6.13;;;4.20;;
7128;SDS011;3606;52.930;8.644;2022-09-06T10:07:23;10.20;;;4.70;;
7128;SDS011;3606;52.930;8.644;2022-09-06T10:12:28;6.17;;;3.83;;
7128;SDS011;3606;52.930;8.644;2022-09-06T10:14:59;6.90;;;4.60;;
7128;SDS011;3606;52.930;8.644;2022-09-06T10:20:06;5.60;;;4.60;;
7128;SDS011;3606;52.930;8.644;2022-09-06T10:22:40;6.70;;;4.10;;
7128;SDS011;3606;52.930;8.644;2022-09-06T10:25:39;7.13;;;4.80;;
7128;SDS011;3606;52.930;8.644;2022-09-06T10:28:32;8.73;;;4.97;;
7128;SDS011;3606;52.930;8.644;2022-09-06T10:31:10;7.57;;;4.80;;
7128;SDS011;3606;52.930;8.644;2022-09-06T10:36:28;9.30;;;4.65;;
7128;SDS011;3606;52.930;8.644;2022-09-06T10:42:02;4.90;;;4.30;;
7128;SDS011;3606;52.930;8.644;2022-09-06T10:44:57;7.70;;;3.88;;
7128;SDS011;3606;52.930;8.644;2022-09-06T10:47:31;7.38;;;3.90;;
7128;SDS011;3606;52.930;8.644;2022-09-06T10:50:08;7.88;;;3.63;;
7128;SDS011;3606;52.930;8.644;2022-09-06T10:52:36;4.93;;;3.80;;
7128;SDS011;3606;52.930;8.644;2022-09-06T10:55:07;6.57;;;3.80;;
7128;SDS011;3606;52.930;8.644;2022-09-06T11:00:12;4.97;;;4.22;;
7128;SDS011;3606;52.930;8.644;2022-09-06T11:05:36;8.65;;;4.13;;
7128;SDS011;3606;52.930;8.644;2022-09-06T11:08:09;8.80;;;4.85;;
7128;SDS011;3606;52.930;8.644;2022-09-06T11:10:46;5.28;;;4.50;;
7128;SDS011;3606;52.930;8.644;2022-09-06T11:13:15;5.97;;;4.47;;
7128;SDS011;3606;52.930;8.644;2022-09-06T11:15:45;5.07;;;4.57;;
7128;SDS011;3606;52.930;8.644;2022-09-06T11:18:16;5.50;;;4.32;;
7128;SDS011;3606;52.930;8.644;2022-09-06T11:21:21;7.53;;;5.10;;
7128;SDS011;3606;52.930;8.644;2022-09-06T11:24:12;4.93;;;4.38;;
7128;SDS011;3606;52.930;8.644;2022-09-06T11:29:28;6.32;;;4.78;;
7128;SDS011;3606;52.930;8.644;2022-09-06T11:31:57;6.78;;;4.82;;
7128;SDS011;3606;52.930;8.644;2022-09-06T11:34:26;5.78;;;5.05;;
7128;SDS011;3606;52.930;8.644;2022-09-06T11:36:56;5.60;;;4.95;;
7128;SDS011;3606;52.930;8.644;2022-09-06T11:39:33;5.68;;;5.18;;
7128;SDS011;3606;52.930;8.644;2022-09-06T11:42:05;6.88;;;5.57;;
7128;SDS011;3606;52.930;8.644;2022-09-06T11:55:23;7.93;;;5.00;;
7128;SDS011;3606;52.930;8.644;2022-09-06T11:57:56;6.80;;;5.30;;
7128;SDS011;3606;52.930;8.644;2022-09-06T12:00:24;5.57;;;5.07;;
7128;SDS011;3606;52.930;8.644;2022-09-06T12:02:51;6.72;;;4.90;;
7128;SDS011;3606;52.930;8.644;2022-09-06T12:15:58;5.75;;;4.55;;
7128;SDS011;3606;52.930;8.644;2022-09-06T12:24:02;8.25;;;4.60;;
7128;SDS011;3606;52.930;8.644;2022-09-06T12:26:45;10.45;;;5.00;;
7128;SDS011;3606;52.930;8.644;2022-09-06T12:29:15;7.15;;;4.65;;
7128;SDS011;3606;52.930;8.644;2022-09-06T12:31:42;4.75;;;4.25;;
7128;SDS011;3606;52.930;8.644;2022-09-06T12:34:21;8.55;;;4.45;;
7128;SDS011;3606;52.930;8.644;2022-09-06T12:36:56;7.18;;;4.75;;
7128;SDS011;3606;52.930;8.644;2022-09-06T12:39:22;6.65;;;4.80;;
7128;SDS011;3606;52.930;8.644;2022-09-06T12:41:49;5.60;;;4.53;;
7128;SDS011;3606;52.930;8.644;2022-09-06T12:44:26;5.65;;;4.40;;
7128;SDS011;3606;52.930;8.644;2022-09-06T12:47:00;6.45;;;4.88;;
7128;SDS011;3606;52.930;8.644;2022-09-06T12:49:29;5.90;;;5.10;;
7128;SDS011;3606;52.930;8.644;2022-09-06T12:52:05;6.35;;;4.90;;
7128;SDS011;3606;52.930;8.644;2022-09-06T12:54:37;6.10;;;4.50;;
7128;SDS011;3606;52.930;8.644;2022-09-06T12:57:12;5.80;;;4.47;;
7128;SDS011;3606;52.930;8.644;2022-09-06T12:59:49;6.97;;;4.82;;
7128;SDS011;3606;52.930;8.644;2022-09-06T13:02:39;5.72;;;4.63;;
7128;SDS011;3606;52.930;8.644;2022-09-06T13:05:08;5.20;;;4.43;;
7128;SDS011;3606;52.930;8.644;2022-09-06T13:07:39;5.65;;;4.95;;
7128;SDS011;3606;52.930;8.644;2022-09-06T13:10:07;6.97;;;5.40;;
7128;SDS011;3606;52.930;8.644;2022-09-06T13:12:38;6.57;;;4.80;;
7128;SDS011;3606;52.930;8.644;2022-09-06T13:15:27;8.15;;;5.00;;
7128;SDS011;3606;52.930;8.644;2022-09-06T13:18:17;5.20;;;4.70;;
7128;SDS011;3606;52.930;8.644;2022-09-06T13:20:43;8.20;;;4.70;;
7128;SDS011;3606;52.930;8.644;2022-09-06T13:23:09;5.15;;;4.63;;
7128;SDS011;3606;52.930;8.644;2022-09-06T13:25:50;9.00;;;4.40;;
7128;SDS011;3606;52.930;8.644;2022-09-06T13:28:27;8.30;;;4.57;;
7128;SDS011;3606;52.930;8.644;2022-09-06T13:33:38;5.20;;;4.25;;
7128;SDS011;3606;52.930;8.644;2022-09-06T13:36:25;5.18;;;4.60;;
7128;SDS011;3606;52.930;8.644;2022-09-06T13:38:54;5.28;;;4.53;;
7128;SDS011;3606;52.930;8.644;2022-09-06T13:43:56;6.22;;;4.80;;
7128;SDS011;3606;52.930;8.644;2022-09-06T13:46:30;8.13;;;4.07;;
7128;SDS011;3606;52.930;8.644;2022-09-06T13:48:57;6.30;;;4.13;;
7128;SDS011;3606;52.930;8.644;2022-09-06T13:51:23;5.60;;;4.18;;
7128;SDS011;3606;52.930;8.644;2022-09-06T13:53:50;7.68;;;4.50;;
7128;SDS011;3606;52.930;8.644;2022-09-06T13:56:27;5.60;;;4.07;;
7128;SDS011;3606;52.930;8.644;2022-09-06T13:58:53;6.22;;;4.90;;
7128;SDS011;3606;52.930;8.644;2022-09-06T14:01:19;6.28;;;4.85;;
7128;SDS011;3606;52.930;8.644;2022-09-06T14:03:44;7.93;;;4.75;;
7128;SDS011;3606;52.930;8.644;2022-09-06T14:06:10;5.97;;;4.55;;
7128;SDS011;3606;52.930;8.644;2022-09-06T14:08:36;7.28;;;4.47;;
7128;SDS011;3606;52.930;8.644;2022-09-06T14:11:03;5.75;;;4.28;;
7128;SDS011;3606;52.930;8.644;2022-09-06T14:13:29;14.27;;;5.20;;
7128;SDS011;3606;52.930;8.644;2022-09-06T14:15:55;5.10;;;4.10;;
7128;SDS011;3606;52.930;8.644;2022-09-06T14:18:20;8.40;;;4.78;;
7128;SDS011;3606;52.930;8.644;2022-09-06T14:20:50;4.47;;;4.07;;
7128;SDS011;3606;52.930;8.644;2022-09-06T14:23:17;5.05;;;4.20;;
7128;SDS011;3606;52.930;8.644;2022-09-06T14:25:43;6.47;;;4.50;;
7128;SDS011;3606;52.930;8.644;2022-09-06T14:28:08;7.38;;;4.53;;
7128;SDS011;3606;52.930;8.644;2022-09-06T14:30:34;5.00;;;4.43;;
7128;SDS011;3606;52.930;8.644;2022-09-06T14:33:02;5.47;;;4.28;;
7128;SDS011;3606;52.930;8.644;2022-09-06T14:35:29;5.07;;;3.90;;
7128;SDS011;3606;52.930;8.644;2022-09-06T14:37:55;4.35;;;3.95;;
7128;SDS011;3606;52.930;8.644;2022-09-06T14:40:21;4.15;;;3.75;;
7128;SDS011;3606;52.930;8.644;2022-09-06T14:42:47;7.82;;;4.40;;
7128;SDS011;3606;52.930;8.644;2022-09-06T14:45:13;5.07;;;4.22;;
7128;SDS011;3606;52.930;8.644;2022-09-06T14:47:38;4.75;;;4.10;;
7128;SDS011;3606;52.930;8.644;2022-09-06T14:50:04;4.80;;;4.25;;
7128;SDS011;3606;52.930;8.644;2022-09-06T14:52:31;4.68;;;4.28;;
7128;SDS011;3606;52.930;8.644;2022-09-06T14:54:56;4.75;;;4.25;;
7128;SDS011;3606;52.930;8.644;2022-09-06T14:57:22;5.57;;;4.00;;
7128;SDS011;3606;52.930;8.644;2022-09-06T14:59:47;5.22;;;3.92;;
7128;SDS011;3606;52.930;8.644;2022-09-06T15:02:13;5.35;;;4.32;;
7128;SDS011;3606;52.930;8.644;2022-09-06T15:04:39;4.70;;;3.72;;
7128;SDS011;3606;52.930;8.644;2022-09-06T15:07:05;5.70;;;3.67;;
7128;SDS011;3606;52.930;8.644;2022-09-06T15:09:32;5.63;;;3.80;;
7128;SDS011;3606;52.930;8.644;2022-09-06T15:11:58;5.53;;;3.58;;
7128;SDS011;3606;52.930;8.644;2022-09-06T15:14:25;4.45;;;3.70;;
7128;SDS011;3606;52.930;8.644;2022-09-06T15:16:53;7.03;;;3.92;;
7128;SDS011;3606;52.930;8.644;2022-09-06T15:19:22;4.60;;;3.63;;
7128;SDS011;3606;52.930;8.644;2022-09-06T15:21:48;7.38;;;3.60;;
7128;SDS011;3606;52.930;8.644;2022-09-06T15:24:14;5.57;;;3.60;;
7128;SDS011;3606;52.930;8.644;2022-09-06T15:26:40;3.83;;;3.42;;
7128;SDS011;3606;52.930;8.644;2022-09-06T15:29:07;5.03;;;3.55;;
7128;SDS011;3606;52.930;8.644;2022-09-06T15:31:34;8.02;;;4.30;;
7128;SDS011;3606;52.930;8.644;2022-09-06T15:34:01;4.30;;;3.90;;
7128;SDS011;3606;52.930;8.644;2022-09-06T15:36:27;6.95;;;3.80;;
7128;SDS011;3606;52.930;8.644;2022-09-06T15:38:54;7.03;;;4.00;;
7128;SDS011;3606;52.930;8.644;2022-09-06T15:41:22;5.03;;;4.20;;
7128;SDS011;3606;52.930;8.644;2022-09-06T15:43:52;4.93;;;3.83;;
7128;SDS011;3606;52.930;8.644;2022-09-06T15:46:20;5.40;;;4.00;;
7128;SDS011;3606;52.930;8.644;2022-09-06T15:49:06;6.17;;;4.30;;
7128;SDS011;3606;52.930;8.644;2022-09-06T15:51:34;4.30;;;3.90;;
7128;SDS011;3606;52.930;8.644;2022-09-06T15:54:03;6.63;;;4.00;;
7128;SDS011;3606;52.930;8.644;2022-09-06T15:56:30;6.90;;;4.10;;
7128;SDS011;3606;52.930;8.644;2022-09-06T15:58:56;7.63;;;4.17;;
7128;SDS011;3606;52.930;8.644;2022-09-06T16:01:22;4.10;;;3.70;;
7128;SDS011;3606;52.930;8.644;2022-09-06T16:03:53;5.10;;;3.83;;
7128;SDS011;3606;52.930;8.644;2022-09-06T16:06:27;6.57;;;4.00;;
7128;SDS011;3606;52.930;8.644;2022-09-06T16:08:55;4.80;;;3.57;;
7128;SDS011;3606;52.930;8.644;2022-09-06T16:11:22;8.07;;;4.20;;
7128;SDS011;3606;52.930;8.644;2022-09-06T16:13:48;5.60;;;4.00;;
7128;SDS011;3606;52.930;8.644;2022-09-06T16:16:14;8.07;;;4.20;;
7128;SDS011;3606;52.930;8.644;2022-09-06T16:18:41;6.17;;;4.97;;
7128;SDS011;3606;52.930;8.644;2022-09-06T16:21:16;7.87;;;4.10;;
7128;SDS011;3606;52.930;8.644;2022-09-06T16:23:46;4.50;;;4.10;;
7128;SDS011;3606;52.930;8.644;2022-09-06T16:26:17;5.50;;;4.10;;
7128;SDS011;3606;52.930;8.644;2022-09-06T16:28:43;8.27;;;3.70;;
7128;SDS011;3606;52.930;8.644;2022-09-06T16:31:09;4.57;;;4.10;;
7128;SDS011;3606;52.930;8.644;2022-09-06T16:33:36;9.20;;;4.60;;
7128;SDS011;3606;52.930;8.644;2022-09-06T16:36:04;6.13;;;3.90;;
7128;SDS011;3606;52.930;8.644;2022-09-06T16:38:33;6.40;;;3.77;;
7128;SDS011;3606;52.930;8.644;2022-09-06T16:41:43;5.90;;;4.27;;
7128;SDS011;3606;52.930;8.644;2022-09-06T16:43:49;6.07;;;4.13;;
7128;SDS011;3606;52.930;8.644;2022-09-06T16:46:19;4.90;;;4.30;;
7128;SDS011;3606;52.930;8.644;2022-09-06T16:48:50;5.30;;;4.03;;
7128;SDS011;3606;52.930;8.644;2022-09-06T16:51:25;4.60;;;3.83;;
7128;SDS011;3606;52.930;8.644;2022-09-06T16:53:51;12.87;;;4.57;;
7128;SDS011;3606;52.930;8.644;2022-09-06T16:56:21;4.60;;;4.17;;
7128;SDS011;3606;52.930;8.644;2022-09-06T16:58:50;5.63;;;3.87;;
7128;SDS011;3606;52.930;8.644;2022-09-06T17:01:18;9.93;;;4.17;;
7128;SDS011;3606;52.930;8.644;2022-09-06T17:03:44;8.80;;;4.67;;
7128;SDS011;3606;52.930;8.644;2022-09-06T17:06:11;10.87;;;4.43;;
7128;SDS011;3606;52.930;8.644;2022-09-06T17:08:37;4.60;;;3.80;;
7128;SDS011;3606;52.930;8.644;2022-09-06T17:11:07;6.97;;;4.03;;